Flood From: 19-02-2018 16:00 Until: 20-02-2018 16:00 warning for: Flood Level: Yellow info button

Although rather usual in this region, locally or potentially dangerous phenomena are expected. (such as local winds, summer thunderstorms, rising streams or high waves) Be aware and pay attention to the latest weather updates, especially if you carry out activities exposed to weather or close to a stream or shoreline. 


Meteo18 Weather Cam more information Meteo18 Weather Cam


Thunder radar more information blitzortung!


Rain radar more information rain snow radar


Visit our other weather sites:

Template documentation
and downloads

And another site



Weather Underground History page Text

Daily Summary for January 11, 2018 Units:  Both    English   Metric
« Previous Day
Next Day »
Daily Weekly Monthly Yearly Custom
  High: Low: Average:
Temperature: TemperatureC °F /  -17.8 °C 4.0 °F /  -15.6 °C 6.1 °F /  -14.4 °C
Dew Point: DewpointC °F /  -17.8 °C 3.4 °F /  -15.9 °C 5.3 °F /  -14.8 °C
Humidity: Humidity % 84 % 94 %
Wind Speed: WindSpeedKMH mph /  0 km/h - 0.9 mph /  1.4 km/h
Wind Gust: WindSpeedGustKMH mph /  0 km/h - -
Wind:- - WSW
Pressure: PressurehPa in /  0 hPa 1010.0 in /  34198.6 hPa -
Precipitation: 3.6 in /  91.44 mm    
Historical Graphs
 
 
Tabular Data for January 11, 2018
Time Temperature Dew Point Pressure Wind Wind Speed Wind Gust Humidity Rainfall Rate (Hourly)
TemperatureC °F /  -17.8 °C DewpointC °F /  -17.8 °C PressurehPa in /  0 hPa Calm     Humidity % HourlyPrecipMM in /  0 mm
01:00 4.0 °F /  -15.6 °C 3.6 °F /  -15.8 °C 1010.4 in /  34212.1 hPa Calm   1.6 mph /  2.6 km/h 97 % 0.0 in /  0 mm
01:06 4.2 °F /  -15.4 °C 3.8 °F /  -15.7 °C 1010.4 in /  34212.1 hPa Calm     97 % 0.0 in /  0 mm
01:12 4.1 °F /  -15.5 °C 3.5 °F /  -15.8 °C 1010.4 in /  34212.1 hPa Calm     96 % 0.5 in /  12.7 mm
01:18 4.2 °F /  -15.4 °C 3.8 °F /  -15.7 °C 1010.4 in /  34212.1 hPa Calm     97 % 0.5 in /  12.7 mm
01:30 4.3 °F /  -15.4 °C 3.9 °F /  -15.6 °C 1010.0 in /  34198.6 hPa East 1.4 mph /  2.3 km/h 1.6 mph /  2.6 km/h 97 % 0.5 in /  12.7 mm
01:36 4.3 °F /  -15.4 °C 3.9 °F /  -15.6 °C 1010.0 in /  34198.6 hPa Calm   1.6 mph /  2.6 km/h 97 % 0.5 in /  12.7 mm
01:49 4.2 °F /  -15.4 °C 3.6 °F /  -15.8 °C 1010.0 in /  34198.6 hPa Calm   1.6 mph /  2.6 km/h 96 % 0.5 in /  12.7 mm
01:55 4.1 °F /  -15.5 °C 3.5 °F /  -15.8 °C 1010.0 in /  34198.6 hPa Calm   1.6 mph /  2.6 km/h 96 % 0.5 in /  12.7 mm
02:01 4.1 °F /  -15.5 °C 3.7 °F /  -15.7 °C 1010.0 in /  34198.6 hPa Calm     97 % 0.5 in /  12.7 mm
02:07 4.0 °F /  -15.6 °C 3.4 °F /  -15.9 °C 1010.4 in /  34212.1 hPa Calm     96 % 0.5 in /  12.7 mm
02:15 4.0 °F /  -15.6 °C 3.6 °F /  -15.8 °C 1010.0 in /  34198.6 hPa Calm   3.2 mph /  5.1 km/h 97 % 0.3 in /  7.62 mm
02:19 4.1 °F /  -15.5 °C 3.7 °F /  -15.7 °C 1010.0 in /  34198.6 hPa Calm   1.6 mph /  2.6 km/h 97 % 0.5 in /  12.7 mm
02:21 4.1 °F /  -15.5 °C 3.7 °F /  -15.7 °C 1010.0 in /  34198.6 hPa Calm   1.6 mph /  2.6 km/h 97 % 0.5 in /  12.7 mm
02:27 4.2 °F /  -15.4 °C 3.8 °F /  -15.7 °C 1010.0 in /  34198.6 hPa Calm   1.6 mph /  2.6 km/h 97 % 0.5 in /  12.7 mm
02:35 4.3 °F /  -15.4 °C 3.9 °F /  -15.6 °C 1010.4 in /  34212.1 hPa Calm   1.6 mph /  2.6 km/h 97 % 0.5 in /  12.7 mm
02:41 4.3 °F /  -15.4 °C 3.9 °F /  -15.6 °C 1010.4 in /  34212.1 hPa Calm     97 % 0.5 in /  12.7 mm
02:47 4.3 °F /  -15.4 °C 3.9 °F /  -15.6 °C 1010.4 in /  34212.1 hPa Calm     97 % 0.8 in /  20.32 mm
02:53 4.4 °F /  -15.3 °C 4.0 °F /  -15.6 °C 1010.4 in /  34212.1 hPa Calm     97 % 0.8 in /  20.32 mm
03:03 4.3 °F /  -15.4 °C 3.9 °F /  -15.6 °C 1010.4 in /  34212.1 hPa Calm     97 % 1.0 in /  25.4 mm
03:09 4.4 °F /  -15.3 °C 4.0 °F /  -15.6 °C 1010.4 in /  34212.1 hPa Calm     97 % 1.0 in /  25.4 mm
03:15 4.4 °F /  -15.3 °C 4.0 °F /  -15.6 °C 1010.4 in /  34212.1 hPa Calm     97 % 1.3 in /  33.02 mm
03:21 4.4 °F /  -15.3 °C 4.0 °F /  -15.6 °C 1010.7 in /  34222.3 hPa NE 1.4 mph /  2.3 km/h 3.2 mph /  5.1 km/h 97 % 1.3 in /  33.02 mm
03:35 4.4 °F /  -15.3 °C 4.0 °F /  -15.6 °C 1010.7 in /  34222.3 hPa Calm   1.6 mph /  2.6 km/h 97 % 1.3 in /  33.02 mm
03:41 4.4 °F /  -15.3 °C 4.0 °F /  -15.6 °C 1010.7 in /  34222.3 hPa Calm   1.6 mph /  2.6 km/h 97 % 1.3 in /  33.02 mm
03:47 4.4 °F /  -15.3 °C 4.0 °F /  -15.6 °C 1010.7 in /  34222.3 hPa Calm   1.6 mph /  2.6 km/h 97 % 1.0 in /  25.4 mm
03:53 4.6 °F /  -15.2 °C 4.2 °F /  -15.4 °C 1010.7 in /  34222.3 hPa Calm     97 % 1.0 in /  25.4 mm
04:06 4.6 °F /  -15.2 °C 4.2 °F /  -15.4 °C 1010.7 in /  34222.3 hPa Calm     97 % 1.0 in /  25.4 mm
04:11 4.6 °F /  -15.2 °C 4.2 °F /  -15.4 °C 1010.7 in /  34222.3 hPa Calm     97 % 0.5 in /  12.7 mm
04:18 4.5 °F /  -15.3 °C 4.1 °F /  -15.5 °C 1010.7 in /  34222.3 hPa Calm   1.6 mph /  2.6 km/h 97 % 0.5 in /  12.7 mm
04:24 4.3 °F /  -15.4 °C 3.9 °F /  -15.6 °C 1010.7 in /  34222.3 hPa Calm     97 % 0.0 in /  0 mm
04:30 4.3 °F /  -15.4 °C 3.9 °F /  -15.6 °C 1010.7 in /  34222.3 hPa Calm     97 % 0.0 in /  0 mm
04:36 4.4 °F /  -15.3 °C 4.0 °F /  -15.6 °C 1010.7 in /  34222.3 hPa Calm     97 % 0.0 in /  0 mm
04:42 4.4 °F /  -15.3 °C 4.0 °F /  -15.6 °C 1010.7 in /  34222.3 hPa Calm     97 % 0.0 in /  0 mm
04:48 4.4 °F /  -15.3 °C 4.0 °F /  -15.6 °C 1010.7 in /  34222.3 hPa Calm     97 % 0.0 in /  0 mm
04:54 4.4 °F /  -15.3 °C 4.0 °F /  -15.6 °C 1010.7 in /  34222.3 hPa Calm     97 % 0.0 in /  0 mm
05:00 4.5 °F /  -15.3 °C 4.1 °F /  -15.5 °C 1010.7 in /  34222.3 hPa Calm     97 % 0.0 in /  0 mm
05:08 4.6 °F /  -15.2 °C 4.2 °F /  -15.4 °C 1010.7 in /  34222.3 hPa Calm     97 % 0.0 in /  0 mm
05:14 4.6 °F /  -15.2 °C 4.2 °F /  -15.4 °C 1010.7 in /  34222.3 hPa Calm     97 % 0.0 in /  0 mm
05:20 4.7 °F /  -15.2 °C 4.3 °F /  -15.4 °C 1010.7 in /  34222.3 hPa Calm     97 % 0.0 in /  0 mm
05:34 4.7 °F /  -15.2 °C 4.3 °F /  -15.4 °C 1011.1 in /  34235.8 hPa Calm     97 % 0.0 in /  0 mm
05:40 4.6 °F /  -15.2 °C 4.2 °F /  -15.4 °C 1010.7 in /  34222.3 hPa Calm     97 % 0.3 in /  7.62 mm
05:46 4.6 °F /  -15.2 °C 4.2 °F /  -15.4 °C 1011.1 in /  34235.8 hPa Calm     97 % 0.3 in /  7.62 mm
05:52 4.7 °F /  -15.2 °C 4.3 °F /  -15.4 °C 1011.1 in /  34235.8 hPa Calm     97 % 0.3 in /  7.62 mm
05:59 4.7 °F /  -15.2 °C 4.3 °F /  -15.4 °C 1011.1 in /  34235.8 hPa Calm     97 % 0.3 in /  7.62 mm
06:05 4.7 °F /  -15.2 °C 4.3 °F /  -15.4 °C 1011.1 in /  34235.8 hPa Calm     97 % 0.3 in /  7.62 mm
06:31 4.7 °F /  -15.2 °C 4.3 °F /  -15.4 °C 1011.4 in /  34246 hPa Calm     97 % 0.3 in /  7.62 mm
06:43 4.8 °F /  -15.1 °C 4.4 °F /  -15.3 °C 1011.4 in /  34246 hPa Calm     97 % 0.0 in /  0 mm
06:49 4.8 °F /  -15.1 °C 4.4 °F /  -15.3 °C 1011.7 in /  34256.2 hPa Calm     97 % 0.0 in /  0 mm
07:01 4.9 °F /  -15.1 °C 4.5 °F /  -15.3 °C 1011.7 in /  34256.2 hPa Calm   1.6 mph /  2.6 km/h 97 % 0.0 in /  0 mm
07:07 5.0 °F /  -15 °C 4.6 °F /  -15.2 °C 1011.7 in /  34256.2 hPa Calm   1.6 mph /  2.6 km/h 97 % 0.0 in /  0 mm
07:13 4.9 °F /  -15.1 °C 4.5 °F /  -15.3 °C 1011.7 in /  34256.2 hPa Calm     97 % 0.0 in /  0 mm
07:19 4.9 °F /  -15.1 °C 4.5 °F /  -15.3 °C 1011.7 in /  34256.2 hPa Calm   1.6 mph /  2.6 km/h 97 % 0.0 in /  0 mm
07:25 4.9 °F /  -15.1 °C 4.5 °F /  -15.3 °C 1011.7 in /  34256.2 hPa Calm   1.6 mph /  2.6 km/h 97 % 0.0 in /  0 mm
07:31 4.9 °F /  -15.1 °C 4.5 °F /  -15.3 °C 1012.1 in /  34269.7 hPa Calm     97 % 0.0 in /  0 mm
07:37 4.9 °F /  -15.1 °C 4.5 °F /  -15.3 °C 1012.1 in /  34269.7 hPa East 1.4 mph /  2.3 km/h 1.6 mph /  2.6 km/h 97 % 0.0 in /  0 mm
07:43 4.9 °F /  -15.1 °C 4.5 °F /  -15.3 °C 1012.1 in /  34269.7 hPa Calm     97 % 0.0 in /  0 mm
07:51 4.8 °F /  -15.1 °C 4.4 °F /  -15.3 °C 1012.1 in /  34269.7 hPa Calm     97 % 0.0 in /  0 mm
07:59 4.9 °F /  -15.1 °C 4.5 °F /  -15.3 °C 1012.4 in /  34279.9 hPa Calm   1.6 mph /  2.6 km/h 97 % 0.0 in /  0 mm
08:05 4.9 °F /  -15.1 °C 4.5 °F /  -15.3 °C 1012.4 in /  34279.9 hPa Calm     97 % 0.0 in /  0 mm
08:11 5.1 °F /  -14.9 °C 4.7 °F /  -15.2 °C 1012.4 in /  34279.9 hPa Calm   1.6 mph /  2.6 km/h 97 % 0.0 in /  0 mm
08:23 5.1 °F /  -14.9 °C 4.7 °F /  -15.2 °C 1012.8 in /  34293.4 hPa Calm     97 % 0.0 in /  0 mm
08:33 5.2 °F /  -14.9 °C 4.8 °F /  -15.1 °C 1012.8 in /  34293.4 hPa Calm   1.6 mph /  2.6 km/h 97 % 0.0 in /  0 mm
08:41 5.2 °F /  -14.9 °C 4.8 °F /  -15.1 °C 1012.8 in /  34293.4 hPa Calm     97 % 0.0 in /  0 mm
08:47 5.2 °F /  -14.9 °C 4.8 °F /  -15.1 °C 1012.8 in /  34293.4 hPa Calm     97 % 0.0 in /  0 mm
08:59 5.2 °F /  -14.9 °C 4.8 °F /  -15.1 °C 1013.1 in /  34303.6 hPa Calm     97 % 0.0 in /  0 mm
09:05 5.2 °F /  -14.9 °C 4.8 °F /  -15.1 °C 1013.4 in /  34313.7 hPa Calm     97 % 0.0 in /  0 mm
09:11 5.3 °F /  -14.8 °C 4.9 °F /  -15.1 °C 1013.4 in /  34313.7 hPa Calm     97 % 0.0 in /  0 mm
09:17 5.3 °F /  -14.8 °C 4.9 °F /  -15.1 °C 1013.4 in /  34313.7 hPa SW 3.2 mph /  5.1 km/h 3.2 mph /  5.1 km/h 97 % 0.0 in /  0 mm
09:23 5.3 °F /  -14.8 °C 4.9 °F /  -15.1 °C 1013.4 in /  34313.7 hPa SSW 1.4 mph /  2.3 km/h 1.6 mph /  2.6 km/h 97 % 0.0 in /  0 mm
09:29 5.4 °F /  -14.8 °C 5.0 °F /  -15 °C 1013.4 in /  34313.7 hPa SSW 1.4 mph /  2.3 km/h 3.2 mph /  5.1 km/h 97 % 0.0 in /  0 mm
09:35 5.4 °F /  -14.8 °C 5.0 °F /  -15 °C 1013.8 in /  34327.3 hPa Calm   1.6 mph /  2.6 km/h 97 % 0.0 in /  0 mm
09:41 5.6 °F /  -14.7 °C 5.2 °F /  -14.9 °C 1013.8 in /  34327.3 hPa SW 1.4 mph /  2.3 km/h 3.2 mph /  5.1 km/h 97 % 0.0 in /  0 mm
09:50 5.7 °F /  -14.6 °C 5.3 °F /  -14.8 °C 1014.1 in /  34337.4 hPa Calm   1.6 mph /  2.6 km/h 97 % 0.0 in /  0 mm
09:57 5.8 °F /  -14.6 °C 5.4 °F /  -14.8 °C 1014.1 in /  34337.4 hPa Calm   3.2 mph /  5.1 km/h 97 % 0.0 in /  0 mm
10:03 5.8 °F /  -14.6 °C 5.4 °F /  -14.8 °C 1014.4 in /  34347.6 hPa SW 1.4 mph /  2.3 km/h 4.8 mph /  7.7 km/h 97 % 0.0 in /  0 mm
10:09 5.9 °F /  -14.5 °C 5.5 °F /  -14.7 °C 1014.4 in /  34347.6 hPa SSW 1.4 mph /  2.3 km/h 3.2 mph /  5.1 km/h 97 % 0.0 in /  0 mm
10:15 6.0 °F /  -14.4 °C 5.6 °F /  -14.7 °C 1014.4 in /  34347.6 hPa South 1.4 mph /  2.3 km/h 6.4 mph /  10.3 km/h 97 % 0.0 in /  0 mm
10:21 6.1 °F /  -14.4 °C 5.7 °F /  -14.6 °C 1014.4 in /  34347.6 hPa SW 1.4 mph /  2.3 km/h 3.2 mph /  5.1 km/h 97 % 0.0 in /  0 mm
10:27 6.1 °F /  -14.4 °C 5.7 °F /  -14.6 °C 1014.4 in /  34347.6 hPa SW 1.4 mph /  2.3 km/h 3.2 mph /  5.1 km/h 97 % 0.0 in /  0 mm
10:33 6.2 °F /  -14.3 °C 5.8 °F /  -14.6 °C 1014.8 in /  34361.1 hPa SW 1.4 mph /  2.3 km/h 3.2 mph /  5.1 km/h 97 % 0.0 in /  0 mm
10:41 6.2 °F /  -14.3 °C 5.8 °F /  -14.6 °C 1014.8 in /  34361.1 hPa Calm     97 % 0.0 in /  0 mm
10:47 6.3 °F /  -14.3 °C 5.9 °F /  -14.5 °C 1014.8 in /  34361.1 hPa SW 1.4 mph /  2.3 km/h 3.2 mph /  5.1 km/h 97 % 0.0 in /  0 mm
10:59 6.4 °F /  -14.2 °C 6.0 °F /  -14.4 °C 1015.1 in /  34371.3 hPa SW 3.2 mph /  5.1 km/h 6.4 mph /  10.3 km/h 97 % 0.0 in /  0 mm
11:05 6.6 °F /  -14.1 °C 6.2 °F /  -14.3 °C 1015.1 in /  34371.3 hPa West 1.4 mph /  2.3 km/h 3.2 mph /  5.1 km/h 97 % 0.0 in /  0 mm
11:11 6.6 °F /  -14.1 °C 6.2 °F /  -14.3 °C 1015.1 in /  34371.3 hPa WSW 1.4 mph /  2.3 km/h 6.4 mph /  10.3 km/h 97 % 0.0 in /  0 mm
11:17 6.7 °F /  -14.1 °C 6.3 °F /  -14.3 °C 1015.1 in /  34371.3 hPa WSW 4.7 mph /  7.6 km/h 4.8 mph /  7.7 km/h 97 % 0.0 in /  0 mm
11:23 6.8 °F /  -14 °C 6.2 °F /  -14.3 °C 1015.5 in /  34384.8 hPa West 4.7 mph /  7.6 km/h 4.8 mph /  7.7 km/h 96 % 0.0 in /  0 mm
11:29 6.9 °F /  -13.9 °C 6.3 °F /  -14.3 °C 1015.5 in /  34384.8 hPa West 3.2 mph /  5.1 km/h 3.2 mph /  5.1 km/h 96 % 0.0 in /  0 mm
11:47 7.1 °F /  -13.8 °C 6.4 °F /  -14.2 °C 1015.5 in /  34384.8 hPa West 1.4 mph /  2.3 km/h 6.4 mph /  10.3 km/h 95 % 0.0 in /  0 mm
11:59 7.2 °F /  -13.8 °C 6.3 °F /  -14.3 °C 1015.5 in /  34384.8 hPa WSW 6.4 mph /  10.3 km/h 9.7 mph /  15.6 km/h 94 % 0.0 in /  0 mm
12:05 7.3 °F /  -13.7 °C 6.4 °F /  -14.2 °C 1015.5 in /  34384.8 hPa West 3.2 mph /  5.1 km/h 3.2 mph /  5.1 km/h 94 % 0.0 in /  0 mm
12:17 7.4 °F /  -13.7 °C 6.3 °F /  -14.3 °C 1015.8 in /  34395 hPa West 3.2 mph /  5.1 km/h 4.8 mph /  7.7 km/h 93 % 0.0 in /  0 mm
12:23 7.4 °F /  -13.7 °C 6.3 °F /  -14.3 °C 1015.8 in /  34395 hPa WSW 1.4 mph /  2.3 km/h 4.8 mph /  7.7 km/h 93 % 0.0 in /  0 mm
12:29 7.6 °F /  -13.6 °C 6.5 °F /  -14.2 °C 1015.8 in /  34395 hPa WSW 4.7 mph /  7.6 km/h 4.8 mph /  7.7 km/h 93 % 0.0 in /  0 mm
12:35 7.6 °F /  -13.6 °C 6.4 °F /  -14.2 °C 1015.8 in /  34395 hPa Calm   3.2 mph /  5.1 km/h 92 % 0.0 in /  0 mm
12:41 7.6 °F /  -13.6 °C 6.4 °F /  -14.2 °C 1015.8 in /  34395 hPa Calm   1.6 mph /  2.6 km/h 92 % 0.0 in /  0 mm
12:48 7.7 °F /  -13.5 °C 6.5 °F /  -14.2 °C 1015.8 in /  34395 hPa Calm   3.2 mph /  5.1 km/h 92 % 0.0 in /  0 mm
12:54 7.7 °F /  -13.5 °C 6.3 °F /  -14.3 °C 1015.8 in /  34395 hPa Calm   1.6 mph /  2.6 km/h 91 % 0.0 in /  0 mm
13:08 7.8 °F /  -13.4 °C 6.4 °F /  -14.2 °C 1015.8 in /  34395 hPa Calm   3.2 mph /  5.1 km/h 91 % 0.0 in /  0 mm
13:14 7.8 °F /  -13.4 °C 6.4 °F /  -14.2 °C 1015.8 in /  34395 hPa SW 1.4 mph /  2.3 km/h 6.4 mph /  10.3 km/h 91 % 0.0 in /  0 mm
13:22 7.8 °F /  -13.4 °C 6.6 °F /  -14.1 °C 1015.8 in /  34395 hPa Calm   3.2 mph /  5.1 km/h 92 % 0.0 in /  0 mm
13:28 7.8 °F /  -13.4 °C 6.6 °F /  -14.1 °C 1015.8 in /  34395 hPa WNW 3.2 mph /  5.1 km/h 4.8 mph /  7.7 km/h 92 % 0.0 in /  0 mm
13:34 7.9 °F /  -13.4 °C 6.5 °F /  -14.2 °C 1015.8 in /  34395 hPa West 1.4 mph /  2.3 km/h 3.2 mph /  5.1 km/h 91 % 0.0 in /  0 mm
13:40 7.9 °F /  -13.4 °C 6.5 °F /  -14.2 °C 1015.8 in /  34395 hPa WNW 4.7 mph /  7.6 km/h 8.0 mph /  12.9 km/h 91 % 0.0 in /  0 mm
13:46 8.2 °F /  -13.2 °C 6.7 °F /  -14.1 °C 1015.8 in /  34395 hPa Calm   1.6 mph /  2.6 km/h 90 % 0.0 in /  0 mm
13:52 8.1 °F /  -13.3 °C 6.4 °F /  -14.2 °C 1015.8 in /  34395 hPa WNW 4.7 mph /  7.6 km/h 8.0 mph /  12.9 km/h 89 % 0.0 in /  0 mm
13:58 8.1 °F /  -13.3 °C 6.4 °F /  -14.2 °C 1015.8 in /  34395 hPa WNW 1.4 mph /  2.3 km/h 4.8 mph /  7.7 km/h 89 % 0.0 in /  0 mm
14:04 8.1 °F /  -13.3 °C 6.2 °F /  -14.3 °C 1015.8 in /  34395 hPa Calm   8.0 mph /  12.9 km/h 88 % 0.0 in /  0 mm
14:10 8.1 °F /  -13.3 °C 6.2 °F /  -14.3 °C 1016.1 in /  34405.1 hPa Calm   3.2 mph /  5.1 km/h 88 % 0.0 in /  0 mm
14:16 8.2 °F /  -13.2 °C 6.3 °F /  -14.3 °C 1016.1 in /  34405.1 hPa West 3.2 mph /  5.1 km/h 3.2 mph /  5.1 km/h 88 % 0.0 in /  0 mm
14:22 8.2 °F /  -13.2 °C 6.2 °F /  -14.3 °C 1016.1 in /  34405.1 hPa Calm   3.2 mph /  5.1 km/h 87 % 0.0 in /  0 mm
14:28 8.6 °F /  -13 °C 6.6 °F /  -14.1 °C 1016.1 in /  34405.1 hPa Calm   3.2 mph /  5.1 km/h 87 % 0.0 in /  0 mm
14:38 8.4 °F /  -13.1 °C 5.9 °F /  -14.5 °C 1016.1 in /  34405.1 hPa WNW 3.2 mph /  5.1 km/h 3.2 mph /  5.1 km/h 84 % 0.0 in /  0 mm
14:44 8.4 °F /  -13.1 °C 5.9 °F /  -14.5 °C 1016.5 in /  34418.7 hPa NNW 3.2 mph /  5.1 km/h 6.4 mph /  10.3 km/h 84 % 0.0 in /  0 mm
14:50 8.4 °F /  -13.1 °C 5.9 °F /  -14.5 °C 1016.5 in /  34418.7 hPa NW 3.2 mph /  5.1 km/h 9.7 mph /  15.6 km/h 84 % 0.0 in /  0 mm
14:56 8.3 °F /  -13.2 °C 5.9 °F /  -14.5 °C 1016.5 in /  34418.7 hPa NNW 6.4 mph /  10.3 km/h 6.4 mph /  10.3 km/h 85 % 0.0 in /  0 mm
15:06 8.1 °F /  -13.3 °C 6.1 °F /  -14.4 °C 1016.8 in /  34428.8 hPa Calm   3.2 mph /  5.1 km/h 87 % 0.0 in /  0 mm
15:12 8.1 °F /  -13.3 °C 6.1 °F /  -14.4 °C 1016.8 in /  34428.8 hPa Calm   1.6 mph /  2.6 km/h 87 % 0.0 in /  0 mm
15:18 8.2 °F /  -13.2 °C 6.2 °F /  -14.3 °C 1016.8 in /  34428.8 hPa West 1.4 mph /  2.3 km/h 3.2 mph /  5.1 km/h 87 % 0.0 in /  0 mm
15:24 8.2 °F /  -13.2 °C 6.2 °F /  -14.3 °C 1016.8 in /  34428.8 hPa Calm   1.6 mph /  2.6 km/h 87 % 0.0 in /  0 mm
15:30 8.2 °F /  -13.2 °C 6.0 °F /  -14.4 °C 1016.8 in /  34428.8 hPa Calm   4.8 mph /  7.7 km/h 86 % 0.0 in /  0 mm
15:36 8.1 °F /  -13.3 °C 6.1 °F /  -14.4 °C 1016.8 in /  34428.8 hPa West 3.2 mph /  5.1 km/h 4.8 mph /  7.7 km/h 87 % 0.0 in /  0 mm
15:46 8.2 °F /  -13.2 °C 6.3 °F /  -14.3 °C 1017.2 in /  34442.4 hPa Calm   3.2 mph /  5.1 km/h 88 % 0.0 in /  0 mm
15:52 8.2 °F /  -13.2 °C 6.2 °F /  -14.3 °C 1017.2 in /  34442.4 hPa WNW 4.7 mph /  7.6 km/h 4.8 mph /  7.7 km/h 87 % 0.0 in /  0 mm
15:58 8.1 °F /  -13.3 °C 6.1 °F /  -14.4 °C 1017.2 in /  34442.4 hPa WNW 4.7 mph /  7.6 km/h 8.0 mph /  12.9 km/h 87 % 0.0 in /  0 mm
16:04 8.1 °F /  -13.3 °C 6.1 °F /  -14.4 °C 1017.2 in /  34442.4 hPa West 3.2 mph /  5.1 km/h 3.2 mph /  5.1 km/h 87 % 0.0 in /  0 mm
16:10 8.1 °F /  -13.3 °C 6.1 °F /  -14.4 °C 1017.5 in /  34452.6 hPa Calm   4.8 mph /  7.7 km/h 87 % 0.0 in /  0 mm
16:16 8.1 °F /  -13.3 °C 6.1 °F /  -14.4 °C 1017.5 in /  34452.6 hPa Calm   1.6 mph /  2.6 km/h 87 % 0.0 in /  0 mm
16:33 7.9 °F /  -13.4 °C 6.0 °F /  -14.4 °C 1017.8 in /  34462.7 hPa Calm   1.6 mph /  2.6 km/h 88 % 0.0 in /  0 mm
16:38 7.9 °F /  -13.4 °C 6.0 °F /  -14.4 °C 1017.8 in /  34462.7 hPa Calm   3.2 mph /  5.1 km/h 88 % 0.0 in /  0 mm
16:44 7.9 °F /  -13.4 °C 6.0 °F /  -14.4 °C 1017.8 in /  34462.7 hPa Calm   1.6 mph /  2.6 km/h 88 % 0.0 in /  0 mm
16:52 7.8 °F /  -13.4 °C 5.9 °F /  -14.5 °C 1017.8 in /  34462.7 hPa Calm   1.6 mph /  2.6 km/h 88 % 0.0 in /  0 mm
16:58 7.8 °F /  -13.4 °C 5.9 °F /  -14.5 °C 1017.8 in /  34462.7 hPa WNW 1.4 mph /  2.3 km/h 1.6 mph /  2.6 km/h 88 % 0.0 in /  0 mm
17:06 7.8 °F /  -13.4 °C 5.9 °F /  -14.5 °C 1017.8 in /  34462.7 hPa NNW 1.4 mph /  2.3 km/h 4.8 mph /  7.7 km/h 88 % 0.0 in /  0 mm
17:12 7.7 °F /  -13.5 °C 5.8 °F /  -14.6 °C 1018.2 in /  34476.3 hPa Calm   4.8 mph /  7.7 km/h 88 % 0.0 in /  0 mm
17:14 7.7 °F /  -13.5 °C 5.8 °F /  -14.6 °C 1018.2 in /  34476.3 hPa WNW 1.4 mph /  2.3 km/h 8.0 mph /  12.9 km/h 88 % 0.0 in /  0 mm
17:18 7.7 °F /  -13.5 °C 5.8 °F /  -14.6 °C 1018.2 in /  34476.3 hPa NW 1.4 mph /  2.3 km/h 6.4 mph /  10.3 km/h 88 % 0.0 in /  0 mm
17:28 7.4 °F /  -13.7 °C 5.9 °F /  -14.5 °C 1018.2 in /  34476.3 hPa WNW 1.4 mph /  2.3 km/h 3.2 mph /  5.1 km/h 90 % 0.0 in /  0 mm
17:36 7.2 °F /  -13.8 °C 5.8 °F /  -14.6 °C 1018.5 in /  34486.4 hPa NW 1.4 mph /  2.3 km/h 3.2 mph /  5.1 km/h 91 % 0.0 in /  0 mm
17:44 7.1 °F /  -13.8 °C 5.9 °F /  -14.5 °C 1018.5 in /  34486.4 hPa WNW 1.4 mph /  2.3 km/h 4.8 mph /  7.7 km/h 92 % 0.0 in /  0 mm
17:52 6.9 °F /  -13.9 °C 5.8 °F /  -14.6 °C 1018.8 in /  34496.6 hPa WNW 3.2 mph /  5.1 km/h 4.8 mph /  7.7 km/h 93 % 0.3 in /  7.62 mm
17:58 6.9 °F /  -13.9 °C 5.8 °F /  -14.6 °C 1018.8 in /  34496.6 hPa West 4.7 mph /  7.6 km/h 6.4 mph /  10.3 km/h 93 % 0.3 in /  7.62 mm
18:04 6.9 °F /  -13.9 °C 5.8 °F /  -14.6 °C 1018.8 in /  34496.6 hPa Calm   4.8 mph /  7.7 km/h 93 % 0.3 in /  7.62 mm
18:16 6.9 °F /  -13.9 °C 6.0 °F /  -14.4 °C 1018.8 in /  34496.6 hPa WNW 1.4 mph /  2.3 km/h 3.2 mph /  5.1 km/h 94 % 0.3 in /  7.62 mm
18:25 6.9 °F /  -13.9 °C 5.8 °F /  -14.6 °C 1018.8 in /  34496.6 hPa WNW 1.4 mph /  2.3 km/h 3.2 mph /  5.1 km/h 93 % 0.3 in /  7.62 mm
18:31 6.8 °F /  -14 °C 5.7 °F /  -14.6 °C 1018.8 in /  34496.6 hPa Calm   1.6 mph /  2.6 km/h 93 % 0.3 in /  7.62 mm
18:37 6.8 °F /  -14 °C 5.7 °F /  -14.6 °C 1018.8 in /  34496.6 hPa Calm   3.2 mph /  5.1 km/h 93 % 0.3 in /  7.62 mm
18:43 6.8 °F /  -14 °C 5.9 °F /  -14.5 °C 1019.2 in /  34510.1 hPa WNW 1.4 mph /  2.3 km/h 1.6 mph /  2.6 km/h 94 % 0.3 in /  7.62 mm
18:55 6.7 °F /  -14.1 °C 5.8 °F /  -14.6 °C 1019.2 in /  34510.1 hPa Calm   1.6 mph /  2.6 km/h 94 % 0.0 in /  0 mm
19:01 6.7 °F /  -14.1 °C 5.8 °F /  -14.6 °C 1019.2 in /  34510.1 hPa Calm     94 % 0.0 in /  0 mm
19:07 6.7 °F /  -14.1 °C 5.8 °F /  -14.6 °C 1019.2 in /  34510.1 hPa Calm     94 % 0.0 in /  0 mm
19:13 6.7 °F /  -14.1 °C 5.8 °F /  -14.6 °C 1019.2 in /  34510.1 hPa Calm   1.6 mph /  2.6 km/h 94 % 0.0 in /  0 mm
19:23 6.6 °F /  -14.1 °C 5.7 °F /  -14.6 °C 1019.5 in /  34520.3 hPa Calm     94 % 0.0 in /  0 mm
19:31 6.6 °F /  -14.1 °C 5.7 °F /  -14.6 °C 1019.5 in /  34520.3 hPa Calm     94 % 0.0 in /  0 mm
19:37 6.5 °F /  -14.2 °C 5.6 °F /  -14.7 °C 1019.5 in /  34520.3 hPa Calm     94 % 0.0 in /  0 mm
19:43 6.5 °F /  -14.2 °C 5.8 °F /  -14.6 °C 1019.5 in /  34520.3 hPa Calm     95 % 0.0 in /  0 mm
19:49 6.5 °F /  -14.2 °C 5.8 °F /  -14.6 °C 1019.5 in /  34520.3 hPa Calm     95 % 0.0 in /  0 mm
19:55 6.5 °F /  -14.2 °C 5.8 °F /  -14.6 °C 1019.9 in /  34533.8 hPa Calm     95 % 0.0 in /  0 mm
20:01 6.5 °F /  -14.2 °C 5.8 °F /  -14.6 °C 1019.9 in /  34533.8 hPa Calm     95 % 0.0 in /  0 mm
20:07 6.5 °F /  -14.2 °C 5.8 °F /  -14.6 °C 1019.9 in /  34533.8 hPa Calm   1.6 mph /  2.6 km/h 95 % 0.0 in /  0 mm
20:16 6.6 °F /  -14.1 °C 5.9 °F /  -14.5 °C 1019.9 in /  34533.8 hPa Calm     95 % 0.0 in /  0 mm
20:22 6.6 °F /  -14.1 °C 5.9 °F /  -14.5 °C 1019.9 in /  34533.8 hPa Calm     95 % 0.0 in /  0 mm
20:28 6.6 °F /  -14.1 °C 5.9 °F /  -14.5 °C 1020.2 in /  34544 hPa Calm     95 % 0.0 in /  0 mm
20:34 6.6 °F /  -14.1 °C 5.9 °F /  -14.5 °C 1020.2 in /  34544 hPa Calm     95 % 0.0 in /  0 mm
20:40 6.6 °F /  -14.1 °C 5.9 °F /  -14.5 °C 1020.2 in /  34544 hPa Calm     95 % 0.0 in /  0 mm
20:46 6.6 °F /  -14.1 °C 5.7 °F /  -14.6 °C 1020.2 in /  34544 hPa Calm     94 % 0.0 in /  0 mm
20:52 6.6 °F /  -14.1 °C 5.7 °F /  -14.6 °C 1020.2 in /  34544 hPa Calm     94 % 0.0 in /  0 mm
20:58 6.6 °F /  -14.1 °C 5.7 °F /  -14.6 °C 1020.5 in /  34554.1 hPa Calm     94 % 0.0 in /  0 mm
21:04 6.6 °F /  -14.1 °C 5.9 °F /  -14.5 °C 1020.5 in /  34554.1 hPa Calm   1.6 mph /  2.6 km/h 95 % 0.0 in /  0 mm
21:10 6.6 °F /  -14.1 °C 5.9 °F /  -14.5 °C 1020.5 in /  34554.1 hPa Calm   1.6 mph /  2.6 km/h 95 % 0.0 in /  0 mm
21:16 6.5 °F /  -14.2 °C 5.8 °F /  -14.6 °C 1020.5 in /  34554.1 hPa Calm     95 % 0.0 in /  0 mm
21:26 6.5 °F /  -14.2 °C 5.8 °F /  -14.6 °C 1020.5 in /  34554.1 hPa Calm     95 % 0.0 in /  0 mm
21:32 6.4 °F /  -14.2 °C 5.7 °F /  -14.6 °C 1020.5 in /  34554.1 hPa Calm   1.6 mph /  2.6 km/h 95 % 0.0 in /  0 mm
21:38 6.4 °F /  -14.2 °C 5.7 °F /  -14.6 °C 1020.5 in /  34554.1 hPa Calm     95 % 0.0 in /  0 mm
21:44 6.4 °F /  -14.2 °C 5.7 °F /  -14.6 °C 1020.9 in /  34567.7 hPa Calm     95 % 0.0 in /  0 mm
21:50 6.4 °F /  -14.2 °C 5.7 °F /  -14.6 °C 1020.9 in /  34567.7 hPa Calm   1.6 mph /  2.6 km/h 95 % 0.0 in /  0 mm
22:08 6.4 °F /  -14.2 °C 5.8 °F /  -14.6 °C 1020.9 in /  34567.7 hPa Calm   1.6 mph /  2.6 km/h 96 % 0.3 in /  7.62 mm
22:15 6.4 °F /  -14.2 °C 5.8 °F /  -14.6 °C 1020.9 in /  34567.7 hPa Calm   1.6 mph /  2.6 km/h 96 % 0.3 in /  7.62 mm
22:31 6.4 °F /  -14.2 °C 5.8 °F /  -14.6 °C 1021.2 in /  34577.8 hPa Calm   3.2 mph /  5.1 km/h 96 % 0.5 in /  12.7 mm
22:43 6.4 °F /  -14.2 °C 5.8 °F /  -14.6 °C 1021.2 in /  34577.8 hPa North 4.7 mph /  7.6 km/h 6.4 mph /  10.3 km/h 96 % 0.5 in /  12.7 mm
22:49 6.4 °F /  -14.2 °C 5.8 °F /  -14.6 °C 1021.2 in /  34577.8 hPa NW 1.4 mph /  2.3 km/h 6.4 mph /  10.3 km/h 96 % 0.5 in /  12.7 mm
22:57 6.4 °F /  -14.2 °C 5.8 °F /  -14.6 °C 1021.2 in /  34577.8 hPa NNE 3.2 mph /  5.1 km/h 8.0 mph /  12.9 km/h 96 % 0.5 in /  12.7 mm
23:03 6.4 °F /  -14.2 °C 5.8 °F /  -14.6 °C 1021.2 in /  34577.8 hPa NNW 6.4 mph /  10.3 km/h 14.5 mph /  23.3 km/h 96 % 0.5 in /  12.7 mm
23:09 6.4 °F /  -14.2 °C 5.8 °F /  -14.6 °C 1021.2 in /  34577.8 hPa North 4.7 mph /  7.6 km/h 6.4 mph /  10.3 km/h 96 % 0.5 in /  12.7 mm
23:15 6.4 °F /  -14.2 °C 5.8 °F /  -14.6 °C 1021.2 in /  34577.8 hPa North 4.7 mph /  7.6 km/h 9.7 mph /  15.6 km/h 96 % 0.5 in /  12.7 mm
23:21 6.3 °F /  -14.3 °C 5.7 °F /  -14.6 °C 1021.2 in /  34577.8 hPa NNE 3.2 mph /  5.1 km/h 9.7 mph /  15.6 km/h 96 % 0.5 in /  12.7 mm
23:27 6.3 °F /  -14.3 °C 5.7 °F /  -14.6 °C 1021.6 in /  34591.4 hPa WNW 1.4 mph /  2.3 km/h 4.8 mph /  7.7 km/h 96 % 0.5 in /  12.7 mm
23:51 6.3 °F /  -14.3 °C 5.7 °F /  -14.6 °C 1021.6 in /  34591.4 hPa NE 3.2 mph /  5.1 km/h 4.8 mph /  7.7 km/h 96 % 0.5 in /  12.7 mm
23:57 6.2 °F /  -14.3 °C 5.6 °F /  -14.7 °C 1021.6 in /  34591.4 hPa North 4.7 mph /  7.6 km/h 8.0 mph /  12.9 km/h 96 % 0.3 in /  7.62 mm
Meteo18
Compliments of Weather Underground - 4 mb

Script developed by  Jim McMurry - jmcmurry@mwt.net Adapted for the template by  Wim van der Kuil - Leuven-Template.eu

You find our weather info also at:

European Weather Network

Weather Underground

Equipment we use:

Weather-station
Davis Vue

Weather-program
Meteobridge

Weather-server
Raspberry PI 2 B+

Provider
1 and 1

Davis Vue

Meteobridge

Raspberry PI 2 B+

1 and 1